Friday, October 31, 2014
22:56 UTC
  |  Log In   |  Register Free
Airport Search:

Lenawee County Airport
(KADG)

Lenawee County Airport Diagram
No Airport Diagram Available

FAA data valid effective September 18, 2014 - November 13, 2014 (unless otherwise noted).

 
 
 
 
 
 
 
 
 
 
 
 
 
 

Current Aviation Weather for Lenawee County Airport (KADG)

The most recent METAR observation for KADG was updated at: 2209
METAR Summary (Translated METAR)
KADG
312153Z AUTO 01019G29KT 10SM -RA BKN017 OVC023 03/01 A2999 RMK AO2 PK WND 02029/2150 SLP163 P0000 T00280006
KUSE
312155Z AUTO 36012G26KT 6SM -RA SCT015 BKN021 BKN025 03/02 A2997 RMK AO2
(15.6 nm SW from KADG)
KDUH
312155Z AUTO 35012G24KT 5SM -RA BKN012 BKN017 OVC022 03/02 A2996 RMK AO2
(20.5 nm SE from KADG)
TAF
No TAF information found within 50 nm of KADG
  Airport Weather Conditions for KADG

 Current Weather at ADG
37° F
Light Rain and Breezy
North winds at 21.9 mph
ADG NOAA Radar

Pressure: 29.99 in
Humidity: 86%
Wind: from the North at 21.9 gusting to 33.4 MPH (19 gusting to 29 KT)
Dew Point: 33.1°F
Visibility: 10.00 mi


Airport Weather Forecast for KADG

Translated METAR and TAF for KADG
Translated METAR for KADG (2251 UTC 31 October 2014)
found at http://aviationweather.gov/adds/metars/
 
METAR text: KADG 312153Z AUTO 01019G29KT 10SM -RA BKN017 OVC023 03/01 A2999 RMK AO2 PK WND 02029/2150 SLP163 P0000 T00280006
Conditions at: KADG (ADRIAN , MI, US) observed 2153 UTC 31 October 2014
Temperature: 2.8°C (37°F)
Dewpoint: 0.6°C (33°F) [RH = 85%]
Pressure (altimeter): 29.99 inches Hg (1015.7 mb)
[Sea-level pressure: 1016.3 mb]
Winds: from the N (10 degrees) at 22 MPH (19 knots; 9.9 m/s)
gusting to 33 MPH (29 knots; 15.1 m/s)
Visibility: 10 or more miles (16+ km)
Ceiling: 1700 feet AGL
Clouds: broken clouds at 1700 feet AGL
overcast cloud deck at 2300 feet AGL
Weather: -RA  (light rain)
Translated TAF for KADG

There is no translated TAF available for this airport

Find All Airport Services Find A Hotel Find A Rental Car Find A Golf Course Find A Restaurant $100 Hamburger



FBO's on the Field
FBO Company Facility Photos Services Transportation Aviation Fuel Prices: Prices include tax
Catering Weather Repair Courtesy Rental Type 100LL JetA JetA+ MOGAS 8087
 
Lenawee County Airport

This FBO has not yet been rated
FS:Avfuel
Last Updated: Oct-10
Login to update fuel prices
SS:
Contact Lenawee County AirportMore FBO Information
 
Add another FBO Facility Photos Catering Weather Repair Courtesy Rental Type 100LL JetA JetA+ MOGAS 8087
Services Transportation Aviation Fuel Prices: Prices include tax


model-print
model-print
model-print
model-print